createdAt,value
2022-09-17T00:03:58.116Z,9.80
2022-09-17T00:09:00.533Z,9.90
2022-09-17T00:14:05.242Z,10.20
2022-09-17T00:19:13.106Z,10.40
2022-09-17T00:24:17.153Z,10.20
2022-09-17T00:29:19.601Z,10.10
2022-09-17T00:34:21.941Z,10.20
2022-09-17T00:39:24.260Z,10.40
2022-09-17T00:45:05.427Z,10.70
2022-09-17T00:50:14.053Z,10.70
2022-09-17T00:55:36.868Z,10.80
2022-09-17T01:00:40.151Z,10.90
2022-09-17T01:06:27.209Z,11.00
2022-09-17T01:11:52.375Z,11.00
2022-09-17T01:17:29.095Z,10.90
2022-09-17T01:22:31.370Z,10.90
2022-09-17T01:27:55.137Z,10.80
2022-09-17T01:33:11.036Z,10.80
2022-09-17T01:38:31.569Z,10.70
2022-09-17T01:43:46.361Z,10.70
2022-09-17T01:48:52.112Z,10.70
2022-09-17T01:54:00.543Z,10.60
2022-09-17T01:59:12.203Z,10.70
2022-09-17T02:04:26.674Z,10.50
2022-09-17T02:09:55.366Z,10.60
2022-09-17T02:15:00.700Z,10.50
2022-09-17T02:20:04.379Z,10.50
2022-09-17T02:25:24.933Z,10.50
2022-09-17T02:30:27.553Z,10.50
2022-09-17T02:35:33.332Z,10.50
2022-09-17T02:40:49.174Z,10.70
2022-09-17T02:46:19.487Z,10.50
2022-09-17T02:51:34.866Z,10.40
2022-09-17T02:56:57.696Z,10.40
2022-09-17T03:02:33.323Z,10.30
2022-09-17T03:07:36.683Z,10.40
2022-09-17T03:12:39.589Z,10.40
2022-09-17T03:17:41.906Z,10.40
2022-09-17T03:22:44.329Z,10.40
2022-09-17T03:27:48.347Z,10.50
2022-09-17T03:32:50.661Z,10.40
2022-09-17T03:37:53.114Z,10.50
2022-09-17T03:42:55.534Z,10.70
2022-09-17T03:47:57.986Z,10.60
2022-09-17T03:53:00.364Z,10.60
2022-09-17T03:58:02.675Z,10.60
2022-09-17T04:03:05.688Z,10.60
2022-09-17T04:08:08.047Z,10.60
2022-09-17T04:13:11.558Z,10.60
2022-09-17T04:18:14.343Z,10.70
2022-09-17T04:23:16.770Z,10.70
2022-09-17T04:28:19.177Z,10.70
2022-09-17T04:33:21.749Z,10.80
2022-09-17T04:38:24.208Z,10.90
2022-09-17T04:43:26.707Z,10.80
2022-09-17T04:48:29.122Z,10.90
2022-09-17T04:53:31.468Z,11.10
2022-09-17T04:58:33.880Z,11.10
2022-09-17T05:03:36.327Z,11.00
2022-09-17T05:08:38.623Z,11.10
2022-09-17T05:13:41.259Z,11.10
2022-09-17T05:18:43.648Z,11.10
2022-09-17T05:23:46.054Z,11.00
2022-09-17T05:28:48.371Z,11.20
2022-09-17T05:33:50.677Z,11.20
2022-09-17T05:38:53.013Z,11.40
2022-09-17T05:43:55.628Z,11.50
2022-09-17T05:48:58.108Z,11.50
2022-09-17T05:54:00.403Z,11.60
2022-09-17T05:59:02.881Z,11.70
2022-09-17T06:04:05.240Z,11.70
2022-09-17T06:09:08.822Z,11.80
2022-09-17T06:14:11.506Z,11.80
2022-09-17T06:19:13.857Z,11.90
2022-09-17T06:24:16.889Z,12.00
2022-09-17T06:29:19.549Z,12.00
2022-09-17T06:34:21.829Z,11.90
2022-09-17T06:39:24.869Z,11.90
2022-09-17T06:44:27.321Z,11.80
2022-09-17T06:49:31.207Z,11.90
2022-09-17T06:54:33.654Z,11.90
2022-09-17T06:59:35.989Z,11.90
2022-09-17T07:04:38.357Z,12.20
2022-09-17T07:09:40.680Z,12.20
2022-09-17T07:14:43.214Z,12.20
2022-09-17T07:19:46.046Z,12.20
2022-09-17T07:24:48.501Z,12.20
2022-09-17T07:29:50.793Z,12.20
2022-09-17T07:34:53.095Z,12.30
2022-09-17T07:39:55.852Z,12.40
2022-09-17T07:45:01.834Z,12.50
2022-09-17T07:50:04.877Z,12.70
2022-09-17T07:55:07.492Z,12.90
2022-09-17T08:00:11.816Z,13.10
2022-09-17T08:05:14.114Z,13.30
2022-09-17T08:10:16.498Z,13.10
2022-09-17T08:15:19.727Z,13.10
2022-09-17T08:20:24.232Z,13.10
2022-09-17T08:25:27.107Z,13.20
2022-09-17T08:30:29.585Z,13.40
2022-09-17T08:35:31.918Z,14.00
2022-09-17T08:40:45.986Z,14.30
2022-09-17T08:45:55.720Z,14.30
2022-09-17T08:51:03.305Z,14.10
2022-09-17T08:56:18.451Z,14.10
2022-09-17T09:01:37.509Z,14.60
2022-09-17T09:06:55.830Z,14.90
2022-09-17T09:12:13.201Z,15.10
2022-09-17T09:17:19.065Z,15.40
2022-09-17T09:22:39.880Z,15.60
2022-09-17T09:28:17.219Z,15.70
2022-09-17T09:33:35.830Z,15.10
2022-09-17T09:38:48.918Z,15.00
2022-09-17T09:44:05.095Z,15.20
2022-09-17T09:49:40.732Z,15.40
2022-09-17T09:55:32.843Z,15.00
2022-09-17T10:00:40.291Z,14.60
2022-09-17T10:06:01.078Z,14.90
2022-09-17T10:11:05.250Z,15.50
2022-09-17T10:16:29.322Z,15.40
2022-09-17T10:21:33.991Z,16.00
2022-09-17T10:26:37.766Z,16.60
2022-09-17T10:31:57.134Z,16.50
2022-09-17T10:37:00.394Z,16.10
2022-09-17T10:42:12.538Z,15.20
2022-09-17T10:47:29.702Z,14.50
2022-09-17T10:52:42.231Z,13.70
2022-09-17T10:58:12.668Z,13.30
2022-09-17T11:03:36.807Z,13.30
2022-09-17T11:08:41.901Z,13.10
2022-09-17T11:14:08.983Z,13.20
2022-09-17T11:19:42.125Z,13.20
2022-09-17T11:25:01.008Z,13.20
2022-09-17T11:30:23.241Z,13.20
2022-09-17T11:35:35.217Z,13.20
2022-09-17T11:40:43.660Z,13.30
2022-09-17T11:46:12.624Z,13.50
2022-09-17T11:51:38.885Z,13.90
2022-09-17T11:56:47.897Z,14.60
2022-09-17T12:01:51.504Z,15.10
2022-09-17T12:07:02.617Z,15.00
2022-09-17T12:12:31.857Z,15.10
2022-09-17T12:17:49.425Z,14.90
2022-09-17T12:22:53.084Z,14.80
2022-09-17T12:28:21.782Z,15.30
2022-09-17T12:33:34.124Z,15.60
2022-09-17T12:39:02.674Z,16.00
2022-09-17T12:44:23.635Z,16.10
2022-09-17T12:49:58.264Z,16.30
2022-09-17T12:55:38.470Z,16.30
2022-09-17T13:00:46.161Z,16.50
2022-09-17T13:05:55.131Z,16.20
2022-09-17T13:11:41.635Z,16.60
2022-09-17T13:17:05.088Z,17.00
2022-09-17T13:22:16.265Z,17.40
2022-09-17T13:27:26.254Z,17.20
2022-09-17T13:32:34.819Z,16.80
2022-09-17T13:37:52.616Z,16.20
2022-09-17T13:43:08.398Z,15.70
2022-09-17T13:48:19.177Z,15.40
2022-09-17T13:53:26.981Z,15.40
2022-09-17T13:58:31.496Z,15.70
2022-09-17T14:03:34.345Z,16.20
2022-09-17T14:08:46.778Z,16.40
2022-09-17T14:14:15.592Z,15.90
2022-09-17T14:19:39.006Z,15.70
2022-09-17T14:24:44.522Z,15.60
2022-09-17T14:30:17.939Z,15.60
2022-09-17T14:35:34.119Z,15.50
2022-09-17T14:40:46.010Z,15.40
2022-09-17T14:45:51.948Z,15.40
2022-09-17T14:51:22.226Z,15.30
2022-09-17T14:56:24.848Z,15.50
2022-09-17T15:01:29.578Z,15.40
2022-09-17T15:06:31.965Z,15.50
2022-09-17T15:11:41.188Z,15.30
2022-09-17T15:16:55.000Z,14.90
2022-09-17T15:21:58.479Z,15.00
2022-09-17T15:27:10.122Z,14.80
2022-09-17T15:32:14.009Z,14.90
2022-09-17T15:37:25.385Z,14.80
2022-09-17T15:42:30.672Z,14.70
2022-09-17T15:47:51.200Z,14.60
2022-09-17T15:53:08.820Z,14.50
2022-09-17T15:58:27.842Z,14.40
2022-09-17T16:03:39.616Z,14.50
2022-09-17T16:08:42.516Z,14.50
2022-09-17T16:13:49.457Z,14.60
2022-09-17T16:18:51.868Z,14.50
2022-09-17T16:23:54.247Z,14.30
2022-09-17T16:29:02.957Z,14.30
2022-09-17T16:34:05.427Z,14.20
2022-09-17T16:39:08.109Z,14.00
2022-09-17T16:44:10.413Z,13.90
2022-09-17T16:49:14.994Z,13.80
2022-09-17T16:54:17.337Z,13.70
2022-09-17T16:59:19.711Z,13.80
2022-09-17T17:04:22.658Z,13.80
2022-09-17T17:09:25.103Z,13.60
2022-09-17T17:14:27.722Z,13.60
2022-09-17T17:19:31.026Z,13.50
2022-09-17T17:24:33.352Z,13.50
2022-09-17T17:30:51.357Z,13.20
2022-09-17T17:35:53.738Z,13.20
2022-09-17T17:41:13.821Z,13.30
2022-09-17T17:46:16.384Z,13.20
2022-09-17T17:51:19.384Z,13.10
2022-09-17T17:56:23.305Z,13.20
2022-09-17T18:01:30.469Z,13.40
2022-09-17T18:06:32.946Z,13.10
2022-09-17T18:11:36.001Z,13.00
2022-09-17T18:16:38.772Z,12.90
2022-09-17T18:21:41.658Z,12.80
2022-09-17T18:26:43.965Z,12.80
2022-09-17T18:31:46.397Z,12.80
2022-09-17T18:36:51.182Z,12.70
2022-09-17T18:41:53.854Z,12.60
2022-09-17T18:46:56.239Z,12.60
2022-09-17T18:51:58.622Z,12.50
2022-09-17T18:57:00.911Z,12.60
2022-09-17T19:02:05.330Z,12.40
2022-09-17T19:07:07.723Z,12.30
2022-09-17T19:12:10.185Z,12.30
2022-09-17T19:17:12.619Z,12.00
2022-09-17T19:22:14.990Z,11.70
2022-09-17T19:27:17.317Z,11.60
2022-09-17T19:32:20.669Z,11.50
2022-09-17T19:37:23.028Z,11.40
2022-09-17T19:42:26.121Z,11.30
2022-09-17T19:47:28.933Z,11.10
2022-09-17T19:52:31.376Z,11.10
2022-09-17T19:57:33.773Z,10.90
2022-09-17T20:02:36.258Z,10.70
2022-09-17T20:07:38.686Z,10.80
2022-09-17T20:12:40.987Z,10.70
2022-09-17T20:17:43.351Z,10.50
2022-09-17T20:22:45.782Z,10.40
2022-09-17T20:27:48.121Z,10.40
2022-09-17T20:32:50.898Z,10.30
2022-09-17T20:38:57.435Z,10.20
2022-09-17T20:43:17.007Z,10.20
2022-09-17T20:49:06.495Z,10.10
2022-09-17T20:54:15.542Z,10.10
2022-09-17T20:59:19.361Z,10.00
2022-09-17T21:04:22.221Z,10.00
2022-09-17T21:09:24.602Z,9.90
2022-09-17T21:14:27.403Z,9.90
2022-09-17T21:19:29.822Z,9.90
2022-09-17T21:24:32.135Z,9.90
2022-09-17T21:29:34.460Z,9.80
2022-09-17T21:34:37.162Z,9.80
2022-09-17T21:39:39.541Z,9.70
2022-09-17T21:44:41.882Z,9.60
2022-09-17T21:49:44.508Z,9.50
2022-09-17T21:54:46.793Z,9.50
2022-09-17T21:59:49.064Z,9.40
2022-09-17T22:04:51.398Z,9.40
2022-09-17T22:09:53.713Z,9.30
2022-09-17T22:14:56.033Z,9.30
2022-09-17T22:19:58.299Z,9.30
2022-09-17T22:25:00.621Z,9.30
2022-09-17T22:30:03.046Z,9.30
2022-09-17T22:35:05.921Z,9.20
2022-09-17T22:40:09.400Z,9.10
2022-09-17T22:45:11.795Z,9.10
2022-09-17T22:50:14.135Z,9.10
2022-09-17T22:55:16.573Z,9.10
2022-09-17T23:00:19.800Z,9.10
2022-09-17T23:05:22.130Z,9.00
2022-09-17T23:10:24.528Z,9.00
2022-09-17T23:15:27.671Z,9.00
2022-09-17T23:20:30.193Z,8.90
2022-09-17T23:25:32.663Z,8.90
2022-09-17T23:30:36.083Z,8.90
2022-09-17T23:35:38.553Z,8.70
2022-09-17T23:40:40.977Z,8.70
2022-09-17T23:45:43.301Z,8.60
2022-09-17T23:50:45.595Z,8.70
2022-09-17T23:55:49.553Z,8.70
